createdAt,value
2023-05-13T00:02:42.211Z,100961.44
2023-05-13T00:05:43.792Z,100953.44
2023-05-13T00:08:45.440Z,100962.28
2023-05-13T00:11:46.944Z,100956.00
2023-05-13T00:14:48.552Z,100954.28
2023-05-13T00:17:50.033Z,100953.44
2023-05-13T00:20:51.805Z,100950.03
2023-05-13T00:23:53.583Z,100946.63
2023-05-13T00:26:55.786Z,100947.31
2023-05-13T00:29:59.346Z,100952.06
2023-05-13T00:33:00.947Z,100947.66
2023-05-13T00:36:02.444Z,100942.34
2023-05-13T00:39:04.077Z,100949.66
2023-05-13T00:42:05.888Z,100941.50
2023-05-13T00:45:07.832Z,100945.22
2023-05-13T00:48:09.530Z,100948.13
2023-05-13T00:51:11.007Z,100952.88
2023-05-13T00:54:12.508Z,100953.91
2023-05-13T00:57:13.964Z,100956.66
2023-05-13T01:00:15.744Z,100953.22
2023-05-13T01:03:29.362Z,100951.34
2023-05-13T01:06:36.960Z,100948.97
2023-05-13T01:10:30.005Z,100959.00
2023-05-13T01:13:36.915Z,100951.84
2023-05-13T01:16:46.237Z,100955.59
2023-05-13T01:19:56.896Z,100952.88
2023-05-13T01:22:58.846Z,100949.44
2023-05-13T01:26:00.341Z,100953.19
2023-05-13T01:29:04.990Z,100955.03
2023-05-13T01:32:09.262Z,100951.47
2023-05-13T01:35:11.896Z,100952.50
2023-05-13T01:38:20.190Z,100958.78
2023-05-13T01:41:26.383Z,100963.41
2023-05-13T01:44:27.980Z,100949.94
2023-05-13T01:47:29.671Z,100959.13
2023-05-13T01:50:31.695Z,100954.69
2023-05-13T01:53:33.557Z,100956.41
2023-05-13T01:56:35.175Z,100956.56
2023-05-13T01:59:37.725Z,100963.88
2023-05-13T02:02:39.709Z,100966.59
2023-05-13T02:05:41.357Z,100955.84
2023-05-13T02:08:43.513Z,100962.19
2023-05-13T02:11:46.018Z,100962.19
2023-05-13T02:14:47.520Z,100963.19
2023-05-13T02:17:49.051Z,100965.06
2023-05-13T02:20:50.987Z,100967.78
2023-05-13T02:23:52.432Z,100961.50
2023-05-13T02:26:54.456Z,100958.91
2023-05-13T02:29:55.928Z,100949.91
2023-05-13T02:32:57.936Z,100948.88
2023-05-13T02:35:59.517Z,100955.34
2023-05-13T02:39:01.107Z,100965.41
2023-05-13T02:42:02.953Z,100958.91
2023-05-13T02:45:07.598Z,100967.94
2023-05-13T02:48:12.618Z,100957.22
2023-05-13T02:51:14.403Z,100961.63
2023-05-13T02:54:17.762Z,100965.22
2023-05-13T02:57:19.342Z,100957.91
2023-05-13T03:00:21.124Z,100960.78
2023-05-13T03:03:22.912Z,100963.53
2023-05-13T03:06:24.564Z,100956.38
2023-05-13T03:09:26.297Z,100959.94
2023-05-13T03:12:27.883Z,100962.69
2023-05-13T03:15:29.385Z,100965.41
2023-05-13T03:18:32.638Z,100966.25
2023-05-13T03:21:34.824Z,100970.00
2023-05-13T03:24:36.578Z,100973.56
2023-05-13T03:27:38.867Z,100979.84
2023-05-13T03:30:41.230Z,100975.44
2023-05-13T03:33:48.734Z,100972.72
2023-05-13T03:36:50.545Z,100980.88
2023-05-13T03:39:52.231Z,100984.47
2023-05-13T03:42:53.863Z,100989.91
2023-05-13T03:45:58.010Z,100990.06
2023-05-13T03:49:00.615Z,100983.63
2023-05-13T03:52:03.595Z,100987.19
2023-05-13T03:55:06.307Z,100992.63
2023-05-13T03:58:14.283Z,100999.78
2023-05-13T04:01:16.006Z,100993.63
2023-05-13T04:04:17.536Z,100988.19
2023-05-13T04:07:19.109Z,100985.47
2023-05-13T04:10:20.778Z,100989.91
2023-05-13T04:13:22.510Z,100996.34
2023-05-13T04:16:25.536Z,100995.34
2023-05-13T04:19:27.077Z,100992.63
2023-05-13T04:22:28.659Z,100996.19
2023-05-13T04:25:30.149Z,100992.63
2023-05-13T04:28:31.765Z,100999.97
2023-05-13T04:31:34.277Z,100999.97
2023-05-13T04:34:37.479Z,100997.22
2023-05-13T04:37:39.057Z,101003.53
2023-05-13T04:40:44.011Z,101006.06
2023-05-13T04:43:47.995Z,101002.50
2023-05-13T04:46:49.650Z,101006.94
2023-05-13T04:49:52.047Z,101010.66
2023-05-13T04:52:54.890Z,101010.66
2023-05-13T04:56:00.769Z,101008.78
2023-05-13T04:59:03.811Z,101006.06
2023-05-13T05:02:06.035Z,101013.25
2023-05-13T05:05:08.146Z,101018.69
2023-05-13T05:08:10.253Z,101017.84
2023-05-13T05:11:12.258Z,101012.41
2023-05-13T05:14:13.727Z,101021.41
2023-05-13T05:17:15.877Z,101021.41
2023-05-13T05:20:17.525Z,101021.41
2023-05-13T05:23:21.595Z,101017.84
2023-05-13T05:26:24.489Z,101014.94
2023-05-13T05:29:26.314Z,101022.25
2023-05-13T05:32:29.291Z,101034.84
2023-05-13T05:35:30.850Z,101031.28
2023-05-13T05:38:32.756Z,101037.75
2023-05-13T05:41:35.839Z,101034.84
2023-05-13T05:44:37.367Z,101031.28
2023-05-13T05:47:38.962Z,101035.88
2023-05-13T05:50:41.369Z,101047.63
2023-05-13T05:53:45.148Z,101041.31
2023-05-13T05:56:48.439Z,101037.75
2023-05-13T05:59:53.371Z,101038.59
2023-05-13T06:02:55.012Z,101034.19
2023-05-13T06:05:57.293Z,101032.13
2023-05-13T06:08:58.881Z,101036.91
2023-05-13T06:12:00.752Z,101038.59
2023-05-13T06:15:02.334Z,101034.84
2023-05-13T06:18:05.582Z,101037.56
2023-05-13T06:21:09.256Z,101038.59
2023-05-13T06:24:10.768Z,101033.31
2023-05-13T06:27:12.303Z,101036.03
2023-05-13T06:30:14.072Z,101036.91
2023-05-13T06:33:17.403Z,101039.78
2023-05-13T06:36:18.916Z,101037.06
2023-05-13T06:39:20.827Z,101040.81
2023-05-13T06:42:23.133Z,101038.09
2023-05-13T06:45:32.515Z,101045.38
2023-05-13T06:48:34.536Z,101039.09
2023-05-13T06:51:36.027Z,101041.81
2023-05-13T06:54:37.807Z,101030.91
2023-05-13T06:57:42.958Z,101027.50
2023-05-13T07:00:46.635Z,101025.66
2023-05-13T07:03:49.267Z,101035.50
2023-05-13T07:06:51.680Z,101036.53
2023-05-13T07:09:53.164Z,101045.56
2023-05-13T07:12:54.685Z,101042.84
2023-05-13T07:15:56.256Z,101040.97
2023-05-13T07:18:57.850Z,101039.94
2023-05-13T07:21:59.435Z,101036.34
2023-05-13T07:25:01.222Z,101036.34
2023-05-13T07:28:02.960Z,101036.34
2023-05-13T07:31:05.352Z,101034.47
2023-05-13T07:34:07.037Z,101030.06
2023-05-13T07:37:08.637Z,101023.59
2023-05-13T07:40:10.642Z,101025.47
2023-05-13T07:43:13.482Z,101028.19
2023-05-13T07:46:15.379Z,101030.91
2023-05-13T07:49:16.866Z,101023.59
2023-05-13T07:52:18.377Z,101027.34
2023-05-13T07:55:20.294Z,101036.34
2023-05-13T07:58:22.065Z,101038.22
2023-05-13T08:01:23.699Z,101028.19
2023-05-13T08:04:25.244Z,101029.03
2023-05-13T08:07:28.563Z,101032.63
2023-05-13T08:10:30.534Z,101025.47
2023-05-13T08:13:32.072Z,101020.03
2023-05-13T08:16:37.040Z,101029.91
2023-05-13T08:19:38.670Z,101029.22
2023-05-13T08:22:40.173Z,101026.50
2023-05-13T08:25:41.707Z,101023.78
2023-05-13T08:28:43.194Z,101028.19
2023-05-13T08:31:44.800Z,101033.63
2023-05-13T08:34:46.315Z,101032.78
2023-05-13T08:37:47.958Z,101031.09
2023-05-13T08:40:49.445Z,101037.38
2023-05-13T08:43:52.078Z,101041.09
2023-05-13T08:47:09.215Z,101034.66
2023-05-13T08:50:12.587Z,101044.72
2023-05-13T08:53:16.530Z,101045.56
2023-05-13T08:56:17.986Z,101036.69
2023-05-13T08:59:19.519Z,101033.13
2023-05-13T09:02:21.531Z,101035.00
2023-05-13T09:05:25.033Z,101040.25
2023-05-13T09:08:27.065Z,101039.56
2023-05-13T09:11:28.911Z,101045.00
2023-05-13T09:14:32.459Z,101045.00
2023-05-13T09:17:39.294Z,101044.00
2023-05-13T09:20:40.906Z,101036.84
2023-05-13T09:23:42.359Z,101031.56
2023-05-13T09:26:44.988Z,101037.72
2023-05-13T09:29:49.742Z,101034.13
2023-05-13T09:33:04.941Z,101032.28
2023-05-13T09:36:06.938Z,101032.41
2023-05-13T09:39:08.517Z,101026.28
2023-05-13T09:42:18.212Z,101020.69
2023-05-13T09:45:20.162Z,101024.56
2023-05-13T09:48:26.140Z,101024.41
2023-05-13T09:51:30.813Z,101025.41
2023-05-13T09:54:36.316Z,101024.41
2023-05-13T09:57:39.676Z,101010.78
2023-05-13T10:00:42.742Z,101015.38
2023-05-13T10:03:44.703Z,101027.13
2023-05-13T10:06:47.892Z,101023.41
2023-05-13T10:09:49.756Z,101018.94
2023-05-13T10:12:51.733Z,101027.81
2023-05-13T10:15:55.363Z,101033.97
2023-05-13T10:18:58.738Z,101030.22
2023-05-13T10:22:01.339Z,101024.75
2023-05-13T10:25:05.007Z,101035.50
2023-05-13T10:28:06.698Z,101022.75
2023-05-13T10:31:08.251Z,101016.28
2023-05-13T10:34:11.088Z,101020.72
2023-05-13T10:37:40.702Z,101020.56
2023-05-13T10:41:13.806Z,101022.41
2023-05-13T10:44:15.348Z,101023.44
2023-05-13T10:47:16.985Z,101019.03
2023-05-13T10:50:26.040Z,101016.97
2023-05-13T10:53:32.256Z,101016.13
2023-05-13T10:56:33.758Z,101016.28
2023-05-13T10:59:37.087Z,101014.41
2023-05-13T11:02:38.661Z,101009.81
2023-05-13T11:05:41.640Z,101016.81
2023-05-13T11:08:44.138Z,101008.63
2023-05-13T11:11:58.885Z,101010.19
2023-05-13T11:15:00.519Z,101010.19
2023-05-13T11:18:02.046Z,101011.88
2023-05-13T11:21:06.008Z,101018.03
2023-05-13T11:24:08.096Z,101012.59
2023-05-13T11:27:17.191Z,101014.13
2023-05-13T11:30:22.950Z,101007.69
2023-05-13T11:33:44.570Z,101007.69
2023-05-13T11:36:48.229Z,101003.09
2023-05-13T11:39:49.683Z,101013.97
2023-05-13T11:42:52.026Z,101012.94
2023-05-13T11:45:53.723Z,101005.63
2023-05-13T11:48:55.507Z,101012.94
2023-05-13T11:51:59.477Z,101008.53
2023-05-13T11:55:01.046Z,101014.97
2023-05-13T11:58:03.326Z,101007.84
2023-05-13T12:01:04.851Z,101010.72
2023-05-13T12:04:07.180Z,101005.44
2023-05-13T12:07:11.898Z,101002.88
2023-05-13T12:10:13.498Z,101002.03
2023-05-13T12:13:15.050Z,101003.88
2023-05-13T12:16:16.690Z,101001.31
2023-05-13T12:19:19.751Z,101002.16
2023-05-13T12:22:22.151Z,101005.91
2023-05-13T12:25:39.085Z,101005.91
2023-05-13T12:28:40.645Z,100998.94
2023-05-13T12:32:03.485Z,101002.50
2023-05-13T12:35:12.914Z,100990.75
2023-05-13T12:38:20.162Z,100989.91
2023-05-13T12:41:22.825Z,100995.50
2023-05-13T12:44:26.625Z,101000.94
2023-05-13T12:47:28.176Z,100988.38
2023-05-13T12:50:29.770Z,100994.81
2023-05-13T12:53:31.262Z,100993.13
2023-05-13T12:56:32.851Z,100983.06
2023-05-13T12:59:34.744Z,100984.94
2023-05-13T13:02:37.405Z,100989.34
2023-05-13T13:05:39.196Z,100972.34
2023-05-13T13:08:40.820Z,100983.25
2023-05-13T13:11:42.331Z,100979.66
2023-05-13T13:14:43.996Z,100978.66
2023-05-13T13:17:45.599Z,100976.78
2023-05-13T13:20:47.291Z,100974.75
2023-05-13T13:23:48.778Z,100971.19
2023-05-13T13:26:50.528Z,100966.56
2023-05-13T13:29:52.005Z,100967.41
2023-05-13T13:32:53.537Z,100977.28
2023-05-13T13:35:55.249Z,100968.28
2023-05-13T13:38:56.734Z,100970.00
2023-05-13T13:41:58.263Z,100958.22
2023-05-13T13:44:59.736Z,100958.06
2023-05-13T13:48:01.490Z,100959.94
2023-05-13T13:51:03.093Z,100952.78
2023-05-13T13:54:05.546Z,100956.19
2023-05-13T13:57:07.054Z,100956.38
2023-05-13T14:00:09.134Z,100958.91
2023-05-13T14:03:10.797Z,100942.75
2023-05-13T14:06:12.343Z,100940.88
2023-05-13T14:09:13.828Z,100934.41
2023-05-13T14:12:15.296Z,100926.41
2023-05-13T14:15:16.987Z,100931.69
2023-05-13T14:18:18.521Z,100927.97
2023-05-13T14:21:20.016Z,100939.84
2023-05-13T14:24:22.666Z,100929.66
2023-05-13T14:27:24.497Z,100939.53
2023-05-13T14:30:27.627Z,100929.31
2023-05-13T14:33:30.635Z,100931.91
2023-05-13T14:36:32.688Z,100933.44
2023-05-13T14:39:34.474Z,100929.69
2023-05-13T14:42:36.014Z,100925.97
2023-05-13T14:45:37.618Z,100923.91
2023-05-13T14:48:39.248Z,100923.03
2023-05-13T14:51:40.915Z,100921.16
2023-05-13T14:54:42.451Z,100918.44
2023-05-13T14:57:44.359Z,100927.31
2023-05-13T15:00:45.922Z,100926.47
2023-05-13T15:03:47.485Z,100923.59
2023-05-13T15:06:49.330Z,100925.13
2023-05-13T15:09:50.999Z,100919.69
2023-05-13T15:12:52.520Z,100917.81
2023-05-13T15:15:55.188Z,100916.63
2023-05-13T15:18:56.868Z,100907.59
2023-05-13T15:21:58.351Z,100911.16
2023-05-13T15:25:00.035Z,100909.97
2023-05-13T15:28:01.697Z,100905.38
2023-05-13T15:31:03.913Z,100909.81
2023-05-13T15:34:05.454Z,100917.81
2023-05-13T15:37:06.961Z,100904.03
2023-05-13T15:40:08.864Z,100918.19
2023-05-13T15:43:10.390Z,100908.13
2023-05-13T15:46:12.081Z,100905.25
2023-05-13T15:49:13.851Z,100910.69
2023-05-13T15:52:15.797Z,100902.53
2023-05-13T15:55:17.284Z,100887.84
2023-05-13T15:58:18.803Z,100884.13
2023-05-13T16:01:20.334Z,100890.28
2023-05-13T16:04:21.926Z,100890.28
2023-05-13T16:07:24.170Z,100889.28
2023-05-13T16:10:25.693Z,100886.56
2023-05-13T16:13:27.248Z,100889.28
2023-05-13T16:16:28.702Z,100890.13
2023-05-13T16:19:30.228Z,100889.28
2023-05-13T16:22:34.454Z,100892.00
2023-05-13T16:25:36.064Z,100885.69
2023-05-13T16:28:38.024Z,100883.97
2023-05-13T16:31:39.600Z,100887.75
2023-05-13T16:34:41.103Z,100878.84
2023-05-13T16:37:42.600Z,100886.16
2023-05-13T16:40:44.307Z,100888.19
2023-05-13T16:43:45.915Z,100888.34
2023-05-13T16:46:47.406Z,100892.97
2023-05-13T16:49:50.129Z,100887.69
2023-05-13T16:52:51.748Z,100894.84
2023-05-13T16:55:53.497Z,100899.59
2023-05-13T16:58:54.937Z,100896.19
2023-05-13T17:01:56.487Z,100892.59
2023-05-13T17:04:57.993Z,100887.34
2023-05-13T17:07:59.453Z,100890.06
2023-05-13T17:11:00.953Z,100869.28
2023-05-13T17:14:06.534Z,100877.44
2023-05-13T17:17:08.171Z,100871.16
2023-05-13T17:20:10.560Z,100873.19
2023-05-13T17:23:12.149Z,100876.75
2023-05-13T17:26:13.675Z,100875.91
2023-05-13T17:29:15.212Z,100865.00
2023-05-13T17:32:16.763Z,100864.16
2023-05-13T17:35:18.296Z,100871.50
2023-05-13T17:38:19.855Z,100869.63
2023-05-13T17:41:21.692Z,100866.88
2023-05-13T17:44:23.874Z,100867.91
2023-05-13T17:47:25.973Z,100862.47
2023-05-13T17:50:30.155Z,100866.88
2023-05-13T17:53:34.390Z,100858.72
2023-05-13T17:56:36.355Z,100861.44
2023-05-13T17:59:37.920Z,100863.13
2023-05-13T18:02:42.304Z,100864.00
2023-05-13T18:05:43.973Z,100864.00
2023-05-13T18:08:45.453Z,100867.56
2023-05-13T18:11:46.973Z,100869.28
2023-05-13T18:14:48.420Z,100874.56
2023-05-13T18:17:50.574Z,100868.28
2023-05-13T18:20:52.816Z,100866.41
2023-05-13T18:23:54.771Z,100871.00
2023-05-13T18:26:56.282Z,100875.41
2023-05-13T18:29:57.841Z,100871.84
2023-05-13T18:32:59.470Z,100876.44
2023-05-13T18:36:01.279Z,100877.28
2023-05-13T18:39:03.065Z,100888.19
2023-05-13T18:42:05.005Z,100888.19
2023-05-13T18:45:07.823Z,100893.63
2023-05-13T18:48:09.340Z,100879.31
2023-05-13T18:51:14.425Z,100891.06
2023-05-13T18:54:16.070Z,100892.78
2023-05-13T18:57:17.830Z,100894.47
2023-05-13T19:00:19.444Z,100898.25
2023-05-13T19:03:21.045Z,100889.38
2023-05-13T19:06:22.659Z,100895.66
2023-05-13T19:09:24.138Z,100900.28
2023-05-13T19:12:26.241Z,100904.69
2023-05-13T19:15:27.828Z,100903.00
2023-05-13T19:18:29.430Z,100900.28
2023-05-13T19:21:31.585Z,100908.44
2023-05-13T19:24:33.116Z,100914.75
2023-05-13T19:27:35.860Z,100912.03
2023-05-13T19:30:38.192Z,100918.31
2023-05-13T19:33:39.679Z,100913.06
2023-05-13T19:36:41.488Z,100916.63
2023-05-13T19:39:43.000Z,100910.31
2023-05-13T19:42:44.482Z,100919.50
2023-05-13T19:45:46.051Z,100913.06
2023-05-13T19:48:47.582Z,100914.75
2023-05-13T19:51:49.051Z,100915.78
2023-05-13T19:54:50.710Z,100921.03
2023-05-13T19:57:52.489Z,100926.50
2023-05-13T20:00:54.453Z,100922.91
2023-05-13T20:03:56.465Z,100913.91
2023-05-13T20:06:58.132Z,100922.91
2023-05-13T20:09:59.726Z,100919.34
2023-05-13T20:13:03.531Z,100920.34
2023-05-13T20:16:05.204Z,100923.94
2023-05-13T20:19:07.083Z,100923.94
2023-05-13T20:22:09.143Z,100923.06
2023-05-13T20:25:10.917Z,100922.22
2023-05-13T20:28:12.473Z,100925.78
2023-05-13T20:31:14.611Z,100923.06
2023-05-13T20:34:16.161Z,100920.53
2023-05-13T20:37:18.078Z,100915.94
2023-05-13T20:40:19.585Z,100915.94
2023-05-13T20:43:21.076Z,100915.94
2023-05-13T20:46:23.197Z,100913.34
2023-05-13T20:49:24.766Z,100913.34
2023-05-13T20:52:26.515Z,100916.97
2023-05-13T20:55:28.207Z,100918.81
2023-05-13T20:58:30.434Z,100916.09
2023-05-13T21:01:34.700Z,100913.34
2023-05-13T21:04:36.527Z,100914.38
2023-05-13T21:07:38.047Z,100915.22
2023-05-13T21:10:39.631Z,100913.53
2023-05-13T21:13:41.075Z,100910.81
2023-05-13T21:16:42.710Z,100913.53
2023-05-13T21:19:44.162Z,100916.25
2023-05-13T21:22:46.019Z,100922.56
2023-05-13T21:25:47.593Z,100911.81
2023-05-13T21:28:49.036Z,100928.16
2023-05-13T21:31:50.533Z,100916.41
2023-05-13T21:34:52.142Z,100922.91
2023-05-13T21:37:56.150Z,100920.88
2023-05-13T21:41:06.217Z,100926.47
2023-05-13T21:44:07.724Z,100917.44
2023-05-13T21:47:09.271Z,100921.16
2023-05-13T21:50:11.215Z,100919.31
2023-05-13T21:53:13.114Z,100913.88
2023-05-13T21:56:14.582Z,100917.59
2023-05-13T21:59:16.065Z,100918.44
2023-05-13T22:02:17.710Z,100917.59
2023-05-13T22:05:19.199Z,100917.59
2023-05-13T22:08:21.046Z,100915.72
2023-05-13T22:11:23.193Z,100911.16
2023-05-13T22:14:24.667Z,100918.63
2023-05-13T22:17:26.234Z,100922.06
2023-05-13T22:20:27.833Z,100925.63
2023-05-13T22:23:29.299Z,100927.50
2023-05-13T22:26:30.847Z,100917.59
2023-05-13T22:29:32.515Z,100912.16
2023-05-13T22:32:34.323Z,100913.88
2023-05-13T22:35:36.480Z,100909.44
2023-05-13T22:38:38.876Z,100916.59
2023-05-13T22:41:40.399Z,100923.03
2023-05-13T22:44:41.920Z,100911.31
2023-05-13T22:47:43.450Z,100920.31
2023-05-13T22:50:45.112Z,100923.03
2023-05-13T22:53:46.607Z,100921.34
2023-05-13T22:56:48.092Z,100924.94
2023-05-13T22:59:49.550Z,100927.66
2023-05-13T23:02:51.087Z,100924.09
2023-05-13T23:05:52.772Z,100915.91
2023-05-13T23:08:54.260Z,100921.34
2023-05-13T23:11:55.905Z,100915.06
2023-05-13T23:14:57.348Z,100912.34
2023-05-13T23:17:58.908Z,100917.78
2023-05-13T23:21:01.281Z,100918.63
2023-05-13T23:24:03.459Z,100919.47
2023-05-13T23:27:05.170Z,100920.50
2023-05-13T23:30:07.347Z,100925.97
2023-05-13T23:33:09.191Z,100917.94
2023-05-13T23:36:10.700Z,100927.81
2023-05-13T23:39:12.134Z,100926.09
2023-05-13T23:42:13.653Z,100931.56
2023-05-13T23:45:15.815Z,100924.22
2023-05-13T23:48:17.384Z,100920.66
2023-05-13T23:51:18.861Z,100915.38
2023-05-13T23:54:20.327Z,100916.25
2023-05-13T23:57:22.132Z,100918.97
